createdAt,value
2019-01-28T00:01:57.388Z,0.53
2019-01-28T00:04:40.042Z,0.60
2019-01-28T00:07:22.085Z,0.47
2019-01-28T00:10:04.561Z,0.55
2019-01-28T00:12:46.844Z,0.60
2019-01-28T00:15:29.499Z,0.75
2019-01-28T00:18:11.702Z,0.70
2019-01-28T00:20:54.287Z,0.80
2019-01-28T00:23:36.704Z,0.93
2019-01-28T00:26:18.501Z,0.90
2019-01-28T00:29:00.482Z,0.60
2019-01-28T00:31:43.087Z,0.82
2019-01-28T00:34:25.531Z,1.05
2019-01-28T00:37:08.050Z,0.65
2019-01-28T00:39:50.203Z,0.70
2019-01-28T00:42:32.944Z,0.80
2019-01-28T00:45:15.194Z,0.70
2019-01-28T00:47:57.950Z,0.60
2019-01-28T00:50:39.795Z,0.68
2019-01-28T00:53:22.130Z,0.70
2019-01-28T00:56:04.589Z,0.88
2019-01-28T00:58:46.675Z,0.62
2019-01-28T01:01:29.013Z,0.82
2019-01-28T01:04:11.088Z,0.70
2019-01-28T01:06:53.029Z,0.90
2019-01-28T01:09:35.503Z,0.72
2019-01-28T01:12:17.716Z,0.80
2019-01-28T01:14:59.943Z,0.75
2019-01-28T01:17:41.831Z,0.60
2019-01-28T01:20:24.114Z,0.60
2019-01-28T01:23:07.090Z,0.55
2019-01-28T01:25:49.323Z,0.60
2019-01-28T01:28:31.478Z,0.60
2019-01-28T01:31:13.494Z,0.70
2019-01-28T01:33:55.526Z,0.70
2019-01-28T01:36:37.746Z,0.68
2019-01-28T01:39:19.743Z,0.85
2019-01-28T01:42:02.150Z,0.88
2019-01-28T01:44:44.451Z,0.90
2019-01-28T01:47:26.215Z,0.85
2019-01-28T01:50:08.885Z,0.75
2019-01-28T01:52:50.726Z,0.85
2019-01-28T01:55:33.333Z,1.07
2019-01-28T01:58:15.699Z,1.10
2019-01-28T02:00:58.255Z,1.10
2019-01-28T02:03:40.670Z,0.90
2019-01-28T02:06:23.204Z,0.98
2019-01-28T02:09:05.057Z,0.70
2019-01-28T02:11:47.598Z,0.90
2019-01-28T02:14:29.774Z,0.75
2019-01-28T02:17:11.909Z,0.70
2019-01-28T02:19:54.742Z,0.75
2019-01-28T02:22:36.639Z,0.72
2019-01-28T02:25:18.974Z,0.90
2019-01-28T02:28:01.318Z,0.70
2019-01-28T02:30:43.800Z,0.90
2019-01-28T02:33:26.149Z,0.80
2019-01-28T02:36:08.073Z,0.85
2019-01-28T02:38:50.803Z,1.00
2019-01-28T02:41:33.116Z,0.90
2019-01-28T02:44:15.456Z,0.90
2019-01-28T02:46:57.430Z,1.25
2019-01-28T02:49:39.775Z,0.93
2019-01-28T02:52:21.907Z,0.62
2019-01-28T02:55:03.718Z,0.72
2019-01-28T02:57:46.057Z,0.80
2019-01-28T03:00:28.766Z,1.00
2019-01-28T03:03:11.066Z,0.63
2019-01-28T03:05:53.107Z,0.60
2019-01-28T03:08:35.115Z,0.80
2019-01-28T03:11:17.768Z,0.70
2019-01-28T03:13:59.721Z,0.80
2019-01-28T03:16:41.857Z,0.70
2019-01-28T03:19:24.151Z,0.85
2019-01-28T03:22:05.951Z,0.78
2019-01-28T03:24:48.926Z,0.60
2019-01-28T03:27:31.099Z,0.85
2019-01-28T03:30:13.537Z,0.60
2019-01-28T03:32:55.967Z,0.57
2019-01-28T03:35:38.189Z,0.70
2019-01-28T03:38:20.665Z,0.72
2019-01-28T03:41:02.915Z,0.70
2019-01-28T03:43:45.455Z,0.90
2019-01-28T03:46:27.437Z,0.60
2019-01-28T03:49:10.237Z,1.20
2019-01-28T03:51:53.071Z,0.90
2019-01-28T03:54:35.079Z,0.90
2019-01-28T03:57:17.111Z,0.60
2019-01-28T03:59:57.897Z,0.60
2019-01-28T04:02:47.642Z,0.68
2019-01-28T04:05:37.374Z,0.60
2019-01-28T04:12:02.335Z,0.85
2019-01-28T04:14:51.988Z,0.60
2019-01-28T04:17:41.793Z,0.50
2019-01-28T04:20:45.922Z,0.60
2019-01-28T04:23:42.260Z,0.80
2019-01-28T04:30:01.695Z,0.70
2019-01-28T04:42:00.192Z,0.70
2019-01-28T04:44:42.547Z,0.60
2019-01-28T04:47:24.571Z,0.90
2019-01-28T04:50:06.723Z,0.85
2019-01-28T04:52:48.611Z,0.80
2019-01-28T04:55:31.243Z,0.75
2019-01-28T04:58:13.034Z,0.72
2019-01-28T05:00:55.181Z,0.70
2019-01-28T05:03:37.326Z,0.80
2019-01-28T05:06:19.726Z,0.70
2019-01-28T05:09:02.140Z,0.88
2019-01-28T05:11:44.504Z,0.68
2019-01-28T05:14:26.869Z,0.90
2019-01-28T05:17:09.165Z,1.10
2019-01-28T05:19:51.636Z,0.90
2019-01-28T05:22:33.962Z,0.98
2019-01-28T05:25:16.321Z,0.93
2019-01-28T05:27:58.191Z,0.90
2019-01-28T05:30:40.461Z,0.72
2019-01-28T05:33:22.749Z,0.95
2019-01-28T05:36:04.780Z,0.85
2019-01-28T05:38:46.993Z,0.98
2019-01-28T05:41:29.359Z,1.00
2019-01-28T05:44:13.855Z,0.88
2019-01-28T05:46:56.556Z,0.90
2019-01-28T05:49:38.884Z,1.10
2019-01-28T05:52:20.719Z,0.60
2019-01-28T05:55:02.900Z,0.68
2019-01-28T05:57:45.442Z,0.72
2019-01-28T06:03:47.307Z,0.60
2019-01-28T06:06:29.588Z,0.60
2019-01-28T06:09:11.891Z,0.57
2019-01-28T06:11:54.148Z,0.60
2019-01-28T06:14:36.789Z,0.60
2019-01-28T06:17:19.470Z,0.60
2019-01-28T06:20:01.795Z,0.40
2019-01-28T06:22:43.968Z,0.50
2019-01-28T06:25:26.991Z,0.60
2019-01-28T06:28:09.368Z,0.42
2019-01-28T06:30:51.870Z,0.40
2019-01-28T06:33:34.834Z,0.60
2019-01-28T06:36:16.555Z,0.82
2019-01-28T06:38:58.491Z,0.60
2019-01-28T06:41:40.703Z,0.60
2019-01-28T06:44:23.357Z,0.70
2019-01-28T06:47:05.931Z,0.60
2019-01-28T06:49:48.335Z,0.80
2019-01-28T06:52:30.847Z,0.90
2019-01-28T06:55:13.164Z,0.90
2019-01-28T06:57:58.681Z,0.65
2019-01-28T07:00:40.852Z,0.70
2019-01-28T07:03:22.735Z,0.88
2019-01-28T07:06:05.080Z,0.90
2019-01-28T07:08:47.590Z,0.80
2019-01-28T07:11:29.666Z,0.80
2019-01-28T07:14:12.112Z,0.70
2019-01-28T07:16:53.838Z,0.90
2019-01-28T07:19:36.008Z,0.98
2019-01-28T07:22:17.989Z,0.90
2019-01-28T07:25:00.563Z,0.80
2019-01-28T07:27:43.222Z,1.65
2019-01-28T07:30:26.757Z,1.20
2019-01-28T07:33:08.542Z,1.05
2019-01-28T07:35:50.986Z,0.90
2019-01-28T07:38:32.817Z,1.30
2019-01-28T07:41:14.995Z,0.80
2019-01-28T07:43:57.401Z,0.95
2019-01-28T07:46:39.286Z,0.90
2019-01-28T07:49:21.191Z,0.95
2019-01-28T07:52:03.593Z,0.62
2019-01-28T07:54:46.341Z,1.17
2019-01-28T07:57:29.051Z,0.95
2019-01-28T08:00:11.523Z,0.80
2019-01-28T08:02:53.757Z,0.90
2019-01-28T08:05:36.052Z,0.82
2019-01-28T08:08:18.611Z,0.93
2019-01-28T08:11:02.146Z,0.90
2019-01-28T08:13:44.923Z,0.80
2019-01-28T08:16:26.956Z,0.80
2019-01-28T08:19:09.243Z,0.80
2019-01-28T08:21:51.213Z,1.02
2019-01-28T08:24:33.071Z,1.00
2019-01-28T08:27:15.349Z,1.57
2019-01-28T08:29:57.935Z,1.85
2019-01-28T08:32:39.895Z,1.27
2019-01-28T08:35:22.130Z,1.92
2019-01-28T08:38:04.415Z,1.05
2019-01-28T08:40:46.869Z,1.00
2019-01-28T08:43:29.220Z,1.10
2019-01-28T08:46:11.883Z,0.82
2019-01-28T08:48:54.072Z,1.20
2019-01-28T08:51:36.566Z,1.37
2019-01-28T08:54:18.763Z,1.40
2019-01-28T08:57:01.265Z,1.20
2019-01-28T08:59:43.937Z,1.10
2019-01-28T09:02:26.163Z,1.30
2019-01-28T09:05:08.319Z,1.25
2019-01-28T09:07:50.715Z,1.27
2019-01-28T09:10:32.699Z,1.35
2019-01-28T09:13:16.676Z,1.50
2019-01-28T09:15:58.575Z,1.22
2019-01-28T09:18:40.665Z,0.80
2019-01-28T09:21:22.619Z,1.40
2019-01-28T09:24:04.747Z,1.35
2019-01-28T09:26:46.755Z,1.12
2019-01-28T09:29:28.617Z,1.05
2019-01-28T09:32:10.594Z,1.20
2019-01-28T09:34:52.799Z,1.30
2019-01-28T09:37:34.947Z,1.20
2019-01-28T09:40:17.739Z,1.47
2019-01-28T09:42:59.915Z,1.00
2019-01-28T09:45:42.113Z,1.10
2019-01-28T09:48:23.942Z,1.20
2019-01-28T09:51:06.291Z,0.90
2019-01-28T09:53:48.431Z,1.20
2019-01-28T09:56:30.926Z,1.30
2019-01-28T09:59:13.374Z,1.15
2019-01-28T10:01:55.829Z,1.32
2019-01-28T10:04:38.540Z,0.85
2019-01-28T10:07:21.075Z,1.30
2019-01-28T10:10:02.834Z,1.05
2019-01-28T10:12:44.944Z,1.12
2019-01-28T10:15:28.977Z,1.50
2019-01-28T10:18:11.324Z,0.90
2019-01-28T10:20:53.483Z,1.42
2019-01-28T10:23:35.894Z,1.40
2019-01-28T10:26:18.325Z,1.20
2019-01-28T10:29:00.651Z,1.02
2019-01-28T10:31:43.103Z,1.05
2019-01-28T10:34:25.242Z,1.10
2019-01-28T10:37:07.257Z,1.30
2019-01-28T10:39:49.499Z,0.85
2019-01-28T10:42:31.953Z,0.88
2019-01-28T10:45:14.539Z,1.35
2019-01-28T10:48:00.606Z,1.00
2019-01-28T10:50:40.839Z,1.20
2019-01-28T10:53:23.119Z,1.47
2019-01-28T10:56:05.611Z,1.17
2019-01-28T10:58:48.019Z,1.43
2019-01-28T11:01:30.599Z,1.20
2019-01-28T11:04:12.756Z,1.15
2019-01-28T11:06:55.355Z,1.27
2019-01-28T11:09:37.721Z,1.20
2019-01-28T11:12:20.459Z,1.50
2019-01-28T11:15:03.147Z,1.60
2019-01-28T11:17:45.382Z,2.45
2019-01-28T11:20:27.535Z,1.83
2019-01-28T11:23:10.501Z,1.60
2019-01-28T11:25:52.836Z,1.82
2019-01-28T11:28:34.784Z,2.00
2019-01-28T11:31:17.303Z,1.53
2019-01-28T11:33:59.991Z,1.80
2019-01-28T11:36:42.450Z,2.03
2019-01-28T11:39:24.930Z,1.27
2019-01-28T11:42:07.383Z,1.10
2019-01-28T11:44:49.645Z,1.40
2019-01-28T11:47:31.786Z,1.50
2019-01-28T11:50:14.166Z,1.70
2019-01-28T11:52:56.657Z,1.70
2019-01-28T11:55:39.438Z,1.70
2019-01-28T11:58:21.754Z,1.23
2019-01-28T12:01:14.397Z,1.73
2019-01-28T12:03:57.177Z,1.70
2019-01-28T12:06:39.191Z,1.70
2019-01-28T12:09:21.436Z,1.47
2019-01-28T12:12:03.349Z,1.35
2019-01-28T12:14:45.714Z,1.87
2019-01-28T12:17:28.685Z,1.60
2019-01-28T12:20:10.819Z,1.80
2019-01-28T12:22:53.517Z,2.03
2019-01-28T12:25:35.785Z,2.80
2019-01-28T12:28:17.705Z,1.47
2019-01-28T12:30:59.734Z,1.40
2019-01-28T12:33:41.975Z,1.50
2019-01-28T12:36:24.539Z,1.92
2019-01-28T12:39:07.046Z,1.60
2019-01-28T12:41:49.547Z,1.40
2019-01-28T12:44:31.809Z,1.97
2019-01-28T12:47:13.695Z,1.00
2019-01-28T12:49:55.527Z,2.05
2019-01-28T12:52:37.477Z,1.83
2019-01-28T12:55:19.735Z,2.05
2019-01-28T12:58:01.967Z,1.20
2019-01-28T13:00:47.581Z,1.40
2019-01-28T13:03:30.023Z,1.52
2019-01-28T13:06:12.509Z,1.82
2019-01-28T13:08:54.344Z,1.30
2019-01-28T13:11:36.375Z,1.30
2019-01-28T13:14:18.562Z,0.90
2019-01-28T13:17:00.919Z,1.47
2019-01-28T13:19:42.707Z,1.30
2019-01-28T13:22:24.827Z,1.95
2019-01-28T13:25:06.791Z,1.80
2019-01-28T13:27:49.149Z,1.10
2019-01-28T13:30:34.826Z,1.73
2019-01-28T13:33:17.266Z,1.45
2019-01-28T13:35:59.311Z,1.30
2019-01-28T13:38:42.011Z,1.33
2019-01-28T13:41:23.970Z,1.60
2019-01-28T13:44:06.250Z,1.20
2019-01-28T13:46:48.627Z,1.12
2019-01-28T13:49:37.951Z,1.55
2019-01-28T13:52:14.136Z,2.05
2019-01-28T13:54:56.206Z,2.17
2019-01-28T13:57:38.049Z,1.60
2019-01-28T14:00:20.059Z,1.47
2019-01-28T14:03:02.186Z,1.15
2019-01-28T14:05:44.718Z,1.52
2019-01-28T14:08:26.731Z,1.30
2019-01-28T14:11:09.085Z,1.92
2019-01-28T14:13:50.983Z,1.02
2019-01-28T14:16:33.435Z,2.10
2019-01-28T14:19:15.789Z,1.92
2019-01-28T14:21:57.509Z,2.00
2019-01-28T14:24:39.526Z,2.62
2019-01-28T14:27:21.675Z,3.10
2019-01-28T14:30:03.559Z,3.80
2019-01-28T14:32:48.174Z,3.12
2019-01-28T14:35:30.663Z,2.95
2019-01-28T14:38:14.103Z,2.87
2019-01-28T14:40:56.493Z,3.40
2019-01-28T14:43:38.320Z,3.20
2019-01-28T14:46:20.947Z,2.60
2019-01-28T14:49:03.633Z,3.60
2019-01-28T14:51:46.177Z,2.30
2019-01-28T14:54:28.808Z,1.80
2019-01-28T14:57:11.610Z,1.70
2019-01-28T14:59:53.608Z,1.47
2019-01-28T15:02:36.131Z,1.60
2019-01-28T15:05:18.380Z,1.50
2019-01-28T15:08:00.694Z,1.40
2019-01-28T15:10:42.496Z,2.10
2019-01-28T15:13:24.906Z,1.90
2019-01-28T15:16:09.022Z,2.30
2019-01-28T15:18:50.726Z,1.95
2019-01-28T15:21:33.560Z,2.22
2019-01-28T15:24:16.161Z,2.08
2019-01-28T15:26:58.774Z,2.50
2019-01-28T15:29:41.080Z,2.25
2019-01-28T15:32:23.247Z,1.65
2019-01-28T15:35:05.664Z,2.75
2019-01-28T15:37:48.134Z,2.50
2019-01-28T15:40:32.184Z,1.80
2019-01-28T15:43:14.677Z,2.40
2019-01-28T15:45:56.805Z,2.50
2019-01-28T15:48:39.410Z,2.35
2019-01-28T15:51:21.763Z,1.90
2019-01-28T15:54:04.385Z,1.90
2019-01-28T15:56:46.786Z,1.50
2019-01-28T15:59:29.109Z,1.67
2019-01-28T16:02:11.577Z,2.17
2019-01-28T16:04:53.976Z,1.47
2019-01-28T16:07:35.923Z,2.10
2019-01-28T16:10:18.434Z,2.87
2019-01-28T16:13:00.928Z,2.50
2019-01-28T16:15:43.314Z,1.90
2019-01-28T16:18:25.459Z,2.27
2019-01-28T16:21:07.996Z,2.75
2019-01-28T16:23:50.198Z,2.15
2019-01-28T16:26:32.373Z,2.30
2019-01-28T16:29:14.829Z,1.65
2019-01-28T16:31:57.226Z,2.62
2019-01-28T16:34:39.330Z,2.50
2019-01-28T16:37:21.189Z,1.98
2019-01-28T16:40:03.910Z,2.00
2019-01-28T16:42:46.565Z,2.30
2019-01-28T16:45:28.863Z,1.95
2019-01-28T16:48:11.493Z,1.95
2019-01-28T16:50:53.275Z,2.35
2019-01-28T16:53:35.977Z,2.80
2019-01-28T16:56:19.645Z,2.20
2019-01-28T16:59:01.932Z,2.70
2019-01-28T17:01:44.018Z,2.77
2019-01-28T17:04:26.463Z,3.45
2019-01-28T17:07:08.451Z,4.53
2019-01-28T17:09:50.771Z,4.08
2019-01-28T17:12:32.671Z,4.50
2019-01-28T17:15:16.296Z,7.75
2019-01-28T17:17:58.558Z,3.95
2019-01-28T17:20:41.120Z,2.12
2019-01-28T17:23:23.236Z,1.95
2019-01-28T17:26:05.923Z,1.80
2019-01-28T17:28:48.007Z,2.42
2019-01-28T17:31:30.177Z,1.70
2019-01-28T17:34:12.115Z,1.95
2019-01-28T17:36:54.904Z,2.30
2019-01-28T17:39:37.030Z,2.10
2019-01-28T17:42:19.288Z,2.30
2019-01-28T17:45:01.747Z,2.33
2019-01-28T17:47:44.610Z,2.50
2019-01-28T17:50:26.563Z,1.98
2019-01-28T17:53:08.974Z,1.70
2019-01-28T17:55:51.941Z,2.33
2019-01-28T17:58:34.393Z,2.47
2019-01-28T18:01:16.381Z,2.60
2019-01-28T18:03:58.633Z,2.95
2019-01-28T18:06:40.579Z,2.92
2019-01-28T18:09:22.702Z,2.25
2019-01-28T18:12:04.814Z,1.90
2019-01-28T18:14:46.651Z,1.85
2019-01-28T18:17:28.726Z,2.30
2019-01-28T18:20:11.050Z,2.42
2019-01-28T18:22:53.599Z,2.37
2019-01-28T18:25:35.448Z,2.10
2019-01-28T18:28:17.414Z,3.20
2019-01-28T18:30:59.255Z,2.95
2019-01-28T18:33:41.676Z,3.02
2019-01-28T18:36:25.172Z,2.92
2019-01-28T18:39:07.169Z,3.65
2019-01-28T18:41:49.297Z,2.90
2019-01-28T18:44:31.712Z,2.90
2019-01-28T18:47:13.870Z,2.45
2019-01-28T18:49:55.778Z,2.40
2019-01-28T18:52:38.302Z,2.15
2019-01-28T18:55:21.891Z,1.77
2019-01-28T18:58:04.456Z,2.25
2019-01-28T19:00:46.533Z,2.20
2019-01-28T19:03:28.914Z,2.75
2019-01-28T19:06:31.054Z,2.40
2019-01-28T19:09:20.107Z,2.55
2019-01-28T19:12:21.093Z,2.98
2019-01-28T19:15:22.370Z,3.33
2019-01-28T19:21:34.435Z,3.70
2019-01-28T19:24:16.422Z,3.05
2019-01-28T19:26:58.843Z,3.17
2019-01-28T19:29:41.485Z,3.27
2019-01-28T19:32:25.585Z,3.20
2019-01-28T19:35:07.823Z,2.67
2019-01-28T19:37:50.366Z,2.40
2019-01-28T19:40:32.954Z,2.80
2019-01-28T19:43:15.051Z,2.67
2019-01-28T19:45:57.445Z,3.20
2019-01-28T19:48:39.269Z,3.15
2019-01-28T19:51:22.146Z,2.60
2019-01-28T19:54:04.941Z,2.83
2019-01-28T19:56:47.525Z,2.70
2019-01-28T19:59:30.061Z,2.92
2019-01-28T20:02:12.854Z,2.92
2019-01-28T20:04:54.709Z,2.60
2019-01-28T20:07:36.773Z,2.37
2019-01-28T20:10:19.265Z,2.40
2019-01-28T20:13:01.049Z,2.60
2019-01-28T20:15:43.593Z,2.00
2019-01-28T20:18:25.820Z,2.40
2019-01-28T20:21:08.336Z,2.20
2019-01-28T20:23:50.702Z,2.10
2019-01-28T20:26:32.825Z,2.42
2019-01-28T20:29:14.705Z,2.45
2019-01-28T20:31:58.150Z,2.15
2019-01-28T20:34:43.475Z,3.10
2019-01-28T20:37:24.509Z,3.05
2019-01-28T20:40:07.837Z,2.80
2019-01-28T20:42:50.483Z,2.87
2019-01-28T20:45:32.932Z,2.98
2019-01-28T20:48:15.517Z,2.58
2019-01-28T20:50:57.728Z,3.15
2019-01-28T20:53:40.126Z,2.83
2019-01-28T20:56:22.670Z,2.52
2019-01-28T20:59:04.747Z,2.42
2019-01-28T21:01:47.190Z,2.47
2019-01-28T21:04:29.439Z,2.70
2019-01-28T21:07:11.876Z,2.83
2019-01-28T21:09:54.538Z,3.00
2019-01-28T21:12:36.796Z,3.20
2019-01-28T21:15:18.673Z,3.45
2019-01-28T21:18:01.078Z,3.65
2019-01-28T21:20:43.074Z,3.90
2019-01-28T21:23:25.157Z,3.60
2019-01-28T21:26:07.223Z,3.60
2019-01-28T21:28:49.385Z,3.65
2019-01-28T21:31:32.076Z,3.98
2019-01-28T21:34:14.138Z,3.45
2019-01-28T21:40:19.478Z,3.12
2019-01-28T21:43:01.581Z,3.30
2019-01-28T21:45:44.217Z,3.10
2019-01-28T21:48:26.785Z,2.65
2019-01-28T21:51:09.206Z,2.50
2019-01-28T21:53:51.145Z,2.67
2019-01-28T21:56:33.695Z,2.85
2019-01-28T21:59:16.234Z,2.45
2019-01-28T22:01:58.470Z,3.08
2019-01-28T22:04:41.124Z,2.50
2019-01-28T22:07:23.735Z,2.75
2019-01-28T22:10:06.211Z,3.00
2019-01-28T22:12:48.517Z,2.52
2019-01-28T22:15:30.378Z,3.47
2019-01-28T22:18:12.936Z,3.20
2019-01-28T22:20:55.291Z,2.80
2019-01-28T22:23:37.381Z,3.35
2019-01-28T22:26:20.063Z,2.70
2019-01-28T22:29:02.273Z,2.92
2019-01-28T22:31:44.846Z,3.20
2019-01-28T22:34:27.226Z,2.50
2019-01-28T22:37:09.028Z,3.37
2019-01-28T22:39:50.945Z,2.80
2019-01-28T22:42:33.147Z,3.33
2019-01-28T22:45:15.751Z,2.87
2019-01-28T22:47:57.948Z,2.95
2019-01-28T22:50:40.450Z,2.98
2019-01-28T22:53:22.775Z,2.60
2019-01-28T22:59:28.363Z,2.90
2019-01-28T23:02:37.424Z,2.87
2019-01-28T23:05:27.071Z,3.55
2019-01-28T23:11:46.330Z,2.60
2019-01-28T23:14:36.400Z,2.95
2019-01-28T23:17:26.027Z,3.20
2019-01-28T23:23:31.463Z,3.22
2019-01-28T23:26:21.231Z,2.67
2019-01-28T23:29:10.881Z,3.60
2019-01-28T23:32:00.529Z,3.42
2019-01-28T23:38:19.903Z,3.17
2019-01-28T23:41:09.594Z,4.20
2019-01-28T23:47:21.199Z,3.10
2019-01-28T23:50:03.756Z,3.58
2019-01-28T23:52:46.131Z,3.10
2019-01-28T23:55:28.453Z,3.33
2019-01-28T23:58:11.424Z,3.20
